Řízení letového provozu České republiky
Letiste: LKCV Aktualizace: 26.09.2016 15:06:07  UTC
 METAR LKCV 26.09. 15:00 ...
METAR LKCV 261500Z 29003KT CAVOK 20/08 Q1021 NOSIG=
 TAF LKCV 26.09. 11:00 ...
TAF LKCV 261100Z 2612/2712 33004KT CAVOK=